createdAt,value
2022-11-14T00:02:17.060Z,70.10
2022-11-14T00:05:02.516Z,69.92
2022-11-14T00:07:47.755Z,69.44
2022-11-14T00:10:32.837Z,69.72
2022-11-14T00:13:18.634Z,69.40
2022-11-14T00:16:03.668Z,69.16
2022-11-14T00:18:48.622Z,68.62
2022-11-14T00:21:33.786Z,68.43
2022-11-14T00:24:21.301Z,68.42
2022-11-14T00:27:08.627Z,67.99
2022-11-14T00:29:53.455Z,68.11
2022-11-14T00:32:38.263Z,68.41
2022-11-14T00:35:23.226Z,68.52
2022-11-14T00:38:08.145Z,69.32
2022-11-14T00:40:52.891Z,69.83
2022-11-14T00:43:37.940Z,69.48
2022-11-14T00:46:25.637Z,69.29
2022-11-14T00:49:13.396Z,69.01
2022-11-14T00:52:00.737Z,68.88
2022-11-14T00:54:45.733Z,67.99
2022-11-14T00:57:33.014Z,68.20
2022-11-14T01:00:18.108Z,68.35
2022-11-14T01:03:03.321Z,68.16
2022-11-14T01:05:52.146Z,68.08
2022-11-14T01:08:37.202Z,67.68
2022-11-14T01:11:22.632Z,68.07
2022-11-14T01:14:07.923Z,68.10
2022-11-14T01:16:53.000Z,67.24
2022-11-14T01:19:38.276Z,67.95
2022-11-14T01:22:23.462Z,67.84
2022-11-14T01:25:11.119Z,67.90
2022-11-14T01:27:56.053Z,67.62
2022-11-14T01:30:41.172Z,67.54
2022-11-14T01:33:26.504Z,67.38
2022-11-14T01:36:14.273Z,67.44
2022-11-14T01:38:59.261Z,67.20
2022-11-14T01:41:44.711Z,67.20
2022-11-14T01:45:01.858Z,66.77
2022-11-14T01:47:46.803Z,66.82
2022-11-14T01:50:31.984Z,67.15
2022-11-14T01:53:19.770Z,67.29
2022-11-14T01:56:05.246Z,67.19
2022-11-14T01:58:53.375Z,67.29
2022-11-14T02:01:40.884Z,67.36
2022-11-14T02:04:31.084Z,67.44
2022-11-14T02:07:18.793Z,67.25
2022-11-14T02:10:06.483Z,67.81
2022-11-14T02:12:51.449Z,67.82
2022-11-14T02:15:36.500Z,68.53
2022-11-14T02:18:21.425Z,68.48
2022-11-14T02:21:09.540Z,68.59
2022-11-14T02:23:57.478Z,68.32
2022-11-14T02:26:42.401Z,68.24
2022-11-14T02:29:27.375Z,68.20
2022-11-14T02:32:14.734Z,69.06
2022-11-14T02:34:59.892Z,69.26
2022-11-14T02:37:45.340Z,68.76
2022-11-14T02:40:32.800Z,68.88
2022-11-14T02:43:20.722Z,69.06
2022-11-14T02:46:06.205Z,68.71
2022-11-14T02:48:51.327Z,69.12
2022-11-14T02:51:36.671Z,68.88
2022-11-14T02:54:22.013Z,68.77
2022-11-14T02:57:07.610Z,68.70
2022-11-14T02:59:52.791Z,68.73
2022-11-14T03:02:37.754Z,68.56
2022-11-14T03:05:23.238Z,68.48
2022-11-14T03:08:08.620Z,68.46
2022-11-14T03:10:53.750Z,68.30
2022-11-14T03:13:38.851Z,68.37
2022-11-14T03:16:23.683Z,68.67
2022-11-14T03:19:08.596Z,68.78
2022-11-14T03:21:55.909Z,68.32
2022-11-14T03:24:41.332Z,67.94
2022-11-14T03:27:29.145Z,67.39
2022-11-14T03:30:14.696Z,67.83
2022-11-14T03:32:59.798Z,67.72
2022-11-14T03:35:44.730Z,67.34
2022-11-14T03:38:30.031Z,67.75
2022-11-14T03:41:15.403Z,67.82
2022-11-14T03:44:00.202Z,67.50
2022-11-14T03:46:45.092Z,67.35
2022-11-14T03:49:32.868Z,67.17
2022-11-14T03:52:17.893Z,68.21
2022-11-14T03:55:05.775Z,68.33
2022-11-14T03:57:50.721Z,68.15
2022-11-14T04:00:35.926Z,67.96
2022-11-14T04:03:21.916Z,67.62
2022-11-14T04:06:09.531Z,68.76
2022-11-14T04:08:56.700Z,68.86
2022-11-14T04:11:44.028Z,68.63
2022-11-14T04:14:28.991Z,68.40
2022-11-14T04:17:16.478Z,68.28
2022-11-14T04:20:01.463Z,68.40
2022-11-14T04:22:46.424Z,68.31
2022-11-14T04:25:31.483Z,68.26
2022-11-14T04:28:16.321Z,68.75
2022-11-14T04:31:01.198Z,68.46
2022-11-14T04:33:46.345Z,69.11
2022-11-14T04:36:31.548Z,69.43
2022-11-14T04:39:17.345Z,68.88
2022-11-14T04:42:02.598Z,68.46
2022-11-14T04:44:47.601Z,68.04
2022-11-14T04:47:33.111Z,67.53
2022-11-14T04:50:20.841Z,68.26
2022-11-14T04:53:10.989Z,68.28
2022-11-14T04:55:59.026Z,68.16
2022-11-14T04:58:44.286Z,68.27
2022-11-14T05:01:32.259Z,68.07
2022-11-14T05:04:19.960Z,67.85
2022-11-14T05:07:05.363Z,67.94
2022-11-14T05:09:50.787Z,67.67
2022-11-14T05:12:35.881Z,67.92
2022-11-14T05:15:21.132Z,67.46
2022-11-14T05:18:08.863Z,67.54
2022-11-14T05:20:53.658Z,67.43
2022-11-14T05:23:39.100Z,67.43
2022-11-14T05:26:24.349Z,67.40
2022-11-14T05:29:12.017Z,67.63
2022-11-14T05:31:57.955Z,67.34
2022-11-14T05:34:42.840Z,67.68
2022-11-14T05:37:27.758Z,67.71
2022-11-14T05:40:17.016Z,67.57
2022-11-14T05:43:02.082Z,68.00
2022-11-14T05:45:49.877Z,67.60
2022-11-14T05:48:37.201Z,67.65
2022-11-14T05:51:22.179Z,67.61
2022-11-14T05:54:07.320Z,67.00
2022-11-14T05:56:52.528Z,67.65
2022-11-14T05:59:38.871Z,67.78
2022-11-14T06:02:26.479Z,67.39
2022-11-14T06:05:13.571Z,67.63
2022-11-14T06:07:58.911Z,67.52
2022-11-14T06:10:43.855Z,68.47
2022-11-14T06:13:28.670Z,68.33
2022-11-14T06:16:15.000Z,68.08
2022-11-14T06:19:02.680Z,67.44
2022-11-14T06:21:50.075Z,67.29
2022-11-14T06:24:35.317Z,66.67
2022-11-14T06:27:21.541Z,66.99
2022-11-14T06:30:09.455Z,66.97
2022-11-14T06:33:00.243Z,66.86
2022-11-14T06:35:46.805Z,66.28
2022-11-14T06:38:38.214Z,66.31
2022-11-14T06:41:31.239Z,66.28
2022-11-14T06:44:19.459Z,66.22
2022-11-14T06:47:04.813Z,66.59
2022-11-14T06:49:49.911Z,66.31
2022-11-14T06:52:34.930Z,66.04
2022-11-14T06:55:25.143Z,66.13
2022-11-14T06:58:10.650Z,66.08
2022-11-14T07:01:02.536Z,66.42
2022-11-14T07:03:50.126Z,65.90
2022-11-14T07:06:34.983Z,66.10
2022-11-14T07:09:19.930Z,65.92
2022-11-14T07:12:04.925Z,65.53
2022-11-14T07:14:50.101Z,65.30
2022-11-14T07:17:36.477Z,65.00
2022-11-14T07:20:21.604Z,64.87
2022-11-14T07:23:06.703Z,63.97
2022-11-14T07:25:54.132Z,64.90
2022-11-14T07:28:42.760Z,65.00
2022-11-14T07:31:28.064Z,64.75
2022-11-14T07:34:13.550Z,65.26
2022-11-14T07:37:01.190Z,65.15
2022-11-14T07:39:48.490Z,65.48
2022-11-14T07:42:35.610Z,65.96
2022-11-14T07:45:20.528Z,65.97
2022-11-14T07:48:11.306Z,65.52
2022-11-14T07:51:00.600Z,65.42
2022-11-14T07:53:46.083Z,65.02
2022-11-14T07:56:31.317Z,64.44
2022-11-14T07:59:16.191Z,64.97
2022-11-14T08:02:01.794Z,64.55
2022-11-14T08:04:47.072Z,64.60
2022-11-14T08:07:31.999Z,64.29
2022-11-14T08:10:18.183Z,64.18
2022-11-14T08:13:30.497Z,63.77
2022-11-14T08:16:13.427Z,64.11
2022-11-14T08:18:59.541Z,64.45
2022-11-14T08:21:47.398Z,65.15
2022-11-14T08:24:32.600Z,65.25
2022-11-14T08:27:17.761Z,65.43
2022-11-14T08:30:02.714Z,65.20
2022-11-14T08:32:47.877Z,65.03
2022-11-14T08:35:33.033Z,65.07
2022-11-14T08:38:18.152Z,65.30
2022-11-14T08:41:03.471Z,64.95
2022-11-14T08:43:48.542Z,64.69
2022-11-14T08:46:33.477Z,64.67
2022-11-14T08:49:18.751Z,64.58
2022-11-14T08:52:04.202Z,64.31
2022-11-14T08:54:49.400Z,64.44
2022-11-14T08:57:34.410Z,63.90
2022-11-14T09:00:19.799Z,64.32
2022-11-14T09:03:11.883Z,64.21
2022-11-14T09:05:57.163Z,64.80
2022-11-14T09:08:42.281Z,64.62
2022-11-14T09:11:27.292Z,64.02
2022-11-14T09:14:12.375Z,63.41
2022-11-14T09:16:59.678Z,63.78
2022-11-14T09:19:48.343Z,63.96
2022-11-14T09:22:38.469Z,63.37
2022-11-14T09:25:26.693Z,64.16
2022-11-14T09:28:11.618Z,64.12
2022-11-14T09:31:00.683Z,63.28
2022-11-14T09:33:45.616Z,63.42
2022-11-14T09:36:30.559Z,62.20
2022-11-14T09:39:15.459Z,62.05
2022-11-14T09:42:00.276Z,62.06
2022-11-14T09:45:03.453Z,61.83
2022-11-14T09:47:49.629Z,61.38
2022-11-14T09:50:35.854Z,60.67
2022-11-14T09:53:42.116Z,60.54
2022-11-14T09:56:27.501Z,59.67
2022-11-14T09:59:15.192Z,58.90
2022-11-14T10:02:03.457Z,58.23
2022-11-14T10:05:24.132Z,57.67
2022-11-14T10:08:15.346Z,57.97
2022-11-14T10:11:10.334Z,57.77
2022-11-14T10:14:14.407Z,56.94
2022-11-14T10:17:04.287Z,57.36
2022-11-14T10:19:59.397Z,56.68
2022-11-14T10:23:01.489Z,55.69
2022-11-14T10:26:05.639Z,55.28
2022-11-14T10:29:09.320Z,55.61
2022-11-14T10:32:00.545Z,54.43
2022-11-14T10:35:04.144Z,54.27
2022-11-14T10:37:58.578Z,53.00
2022-11-14T10:40:47.534Z,52.58
2022-11-14T10:43:32.587Z,52.36
2022-11-14T10:46:22.309Z,51.01
2022-11-14T10:49:21.098Z,51.53
2022-11-14T10:52:15.399Z,51.51
2022-11-14T10:55:00.306Z,50.49
2022-11-14T10:57:45.917Z,49.68
2022-11-14T11:00:31.325Z,49.36
2022-11-14T11:03:18.794Z,48.82
2022-11-14T11:06:04.133Z,47.95
2022-11-14T11:09:07.691Z,47.82
2022-11-14T11:11:59.830Z,47.20
2022-11-14T11:14:45.545Z,47.03
2022-11-14T11:17:41.748Z,48.06
2022-11-14T11:20:28.045Z,46.30
2022-11-14T11:23:20.596Z,47.02
2022-11-14T11:26:15.704Z,46.74
2022-11-14T11:29:05.596Z,45.72
2022-11-14T11:31:50.902Z,45.54
2022-11-14T11:34:35.904Z,45.47
2022-11-14T11:40:18.475Z,45.78
2022-11-14T11:46:15.640Z,45.18
2022-11-14T11:49:06.219Z,44.46
2022-11-14T11:51:54.001Z,44.20
2022-11-14T11:54:49.787Z,44.12
2022-11-14T11:57:36.297Z,44.58
2022-11-14T12:00:21.986Z,43.88
2022-11-14T12:03:10.375Z,44.10
2022-11-14T12:06:15.089Z,42.89
2022-11-14T12:09:20.385Z,43.37
2022-11-14T12:12:08.378Z,41.77
2022-11-14T12:14:53.821Z,42.83
2022-11-14T12:17:45.591Z,41.01
2022-11-14T12:20:36.990Z,42.17
2022-11-14T12:23:22.192Z,43.50
2022-11-14T12:26:11.319Z,41.91
2022-11-14T12:29:07.858Z,42.54
2022-11-14T12:31:54.667Z,41.30
2022-11-14T12:34:41.445Z,41.47
2022-11-14T12:37:31.974Z,37.92
2022-11-14T12:40:30.343Z,37.78
2022-11-14T12:43:31.760Z,38.29
2022-11-14T12:46:22.254Z,37.22
2022-11-14T12:49:45.690Z,37.57
2022-11-14T12:52:49.664Z,36.81
2022-11-14T12:55:34.369Z,37.93
2022-11-14T12:58:19.578Z,37.69
2022-11-14T13:01:16.947Z,38.36
2022-11-14T13:04:22.646Z,38.52
2022-11-14T13:07:32.740Z,38.34
2022-11-14T13:10:29.829Z,38.52
2022-11-14T13:13:34.345Z,38.74
2022-11-14T13:16:43.920Z,38.46
2022-11-14T13:19:47.510Z,38.59
2022-11-14T13:22:36.206Z,37.42
2022-11-14T13:25:22.459Z,37.32
2022-11-14T13:28:28.903Z,37.15
2022-11-14T13:31:16.962Z,36.38
2022-11-14T13:34:23.293Z,38.57
2022-11-14T13:37:11.287Z,37.42
2022-11-14T13:40:02.131Z,38.06
2022-11-14T13:43:05.280Z,37.61
2022-11-14T13:46:05.310Z,37.17
2022-11-14T13:49:28.650Z,37.60
2022-11-14T13:52:13.621Z,37.38
2022-11-14T13:54:58.920Z,38.12
2022-11-14T13:57:55.564Z,37.69
2022-11-14T14:00:51.113Z,36.57
2022-11-14T14:03:54.895Z,35.37
2022-11-14T14:06:52.596Z,34.35
2022-11-14T14:09:41.092Z,34.49
2022-11-14T14:12:28.892Z,35.31
2022-11-14T14:15:25.787Z,35.36
2022-11-14T14:18:23.135Z,35.41
2022-11-14T14:21:24.659Z,35.34
2022-11-14T14:24:14.268Z,35.59
2022-11-14T14:26:59.228Z,36.69
2022-11-14T14:29:59.393Z,37.76
2022-11-14T14:33:01.912Z,39.01
2022-11-14T14:35:53.253Z,40.17
2022-11-14T14:38:43.512Z,40.74
2022-11-14T14:41:32.101Z,41.58
2022-11-14T14:44:27.238Z,42.31
2022-11-14T14:47:32.595Z,43.57
2022-11-14T14:50:21.108Z,43.75
2022-11-14T14:53:08.587Z,44.43
2022-11-14T14:55:58.051Z,45.24
2022-11-14T14:58:42.967Z,45.38
2022-11-14T15:01:34.602Z,46.02
2022-11-14T15:04:20.131Z,46.23
2022-11-14T15:07:05.429Z,46.60
2022-11-14T15:10:01.766Z,46.89
2022-11-14T15:12:50.313Z,47.46
2022-11-14T15:15:35.173Z,47.85
2022-11-14T15:18:23.738Z,48.05
2022-11-14T15:21:23.058Z,48.21
2022-11-14T15:24:14.940Z,48.10
2022-11-14T15:27:05.645Z,48.36
2022-11-14T15:29:51.362Z,48.63
2022-11-14T15:32:36.532Z,48.67
2022-11-14T15:35:27.538Z,48.75
2022-11-14T15:38:44.942Z,49.23
2022-11-14T15:41:24.259Z,49.43
2022-11-14T15:44:28.579Z,49.73
2022-11-14T15:47:17.918Z,50.30
2022-11-14T15:50:20.320Z,50.52
2022-11-14T15:53:05.189Z,50.66
2022-11-14T15:55:50.141Z,51.05
2022-11-14T15:58:35.398Z,51.45
2022-11-14T16:01:26.204Z,51.27
2022-11-14T16:04:14.090Z,51.63
2022-11-14T16:06:59.196Z,51.68
2022-11-14T16:09:44.477Z,52.12
2022-11-14T16:12:29.682Z,52.43
2022-11-14T16:15:15.794Z,52.60
2022-11-14T16:18:00.922Z,52.76
2022-11-14T16:20:45.939Z,53.01
2022-11-14T16:23:33.732Z,53.74
2022-11-14T16:26:19.243Z,54.97
2022-11-14T16:29:07.666Z,55.44
2022-11-14T16:31:55.509Z,56.12
2022-11-14T16:34:40.562Z,56.51
2022-11-14T16:37:25.551Z,56.76
2022-11-14T16:40:14.822Z,56.84
2022-11-14T16:43:00.086Z,56.97
2022-11-14T16:45:45.101Z,57.28
2022-11-14T16:48:30.516Z,57.57
2022-11-14T16:51:46.149Z,58.05
2022-11-14T16:54:24.560Z,58.84
2022-11-14T16:57:09.937Z,59.04
2022-11-14T16:59:58.550Z,59.56
2022-11-14T17:02:44.120Z,59.53
2022-11-14T17:05:31.711Z,59.62
2022-11-14T17:08:16.963Z,59.27
2022-11-14T17:11:07.538Z,59.83
2022-11-14T17:13:52.558Z,59.70
2022-11-14T17:16:37.909Z,59.54
2022-11-14T17:19:23.176Z,59.69
2022-11-14T17:22:08.340Z,59.79
2022-11-14T17:24:53.611Z,60.00
2022-11-14T17:27:38.385Z,60.12
2022-11-14T17:30:23.217Z,60.02
2022-11-14T17:33:07.989Z,60.08
2022-11-14T17:35:53.348Z,60.08
2022-11-14T17:38:38.461Z,60.05
2022-11-14T17:41:26.018Z,59.86
2022-11-14T17:44:11.071Z,60.16
2022-11-14T17:46:56.220Z,60.04
2022-11-14T17:49:41.134Z,60.06
2022-11-14T17:52:26.013Z,60.21
2022-11-14T17:55:11.443Z,60.31
2022-11-14T17:57:57.000Z,60.28
2022-11-14T18:00:41.935Z,60.34
2022-11-14T18:03:27.260Z,60.40
2022-11-14T18:06:13.908Z,60.31
2022-11-14T18:09:01.175Z,60.41
2022-11-14T18:11:46.588Z,60.49
2022-11-14T18:14:31.654Z,60.54
2022-11-14T18:17:16.689Z,60.68
2022-11-14T18:20:02.106Z,60.84
2022-11-14T18:22:48.686Z,60.90
2022-11-14T18:25:36.252Z,60.92
2022-11-14T18:28:20.988Z,61.02
2022-11-14T18:31:10.881Z,61.18
2022-11-14T18:33:56.815Z,61.43
2022-11-14T18:36:41.888Z,61.34
2022-11-14T18:39:30.696Z,61.50
2022-11-14T18:42:18.302Z,61.54
2022-11-14T18:45:03.377Z,61.50
2022-11-14T18:47:51.593Z,61.42
2022-11-14T18:50:36.761Z,61.05
2022-11-14T18:53:21.829Z,60.92
2022-11-14T18:56:11.371Z,60.86
2022-11-14T18:58:56.587Z,61.36
2022-11-14T19:01:41.832Z,61.18
2022-11-14T19:04:27.162Z,61.43
2022-11-14T19:07:12.499Z,61.80
2022-11-14T19:09:57.798Z,61.68
2022-11-14T19:12:43.427Z,61.88
2022-11-14T19:15:33.262Z,61.98
2022-11-14T19:18:18.086Z,61.72
2022-11-14T19:21:03.610Z,61.75
2022-11-14T19:23:51.558Z,61.97
2022-11-14T19:26:36.544Z,61.91
2022-11-14T19:29:23.870Z,62.08
2022-11-14T19:32:08.977Z,62.22
2022-11-14T19:34:54.463Z,61.80
2022-11-14T19:37:39.795Z,62.12
2022-11-14T19:40:26.098Z,62.74
2022-11-14T19:43:11.509Z,62.68
2022-11-14T19:46:02.399Z,63.15
2022-11-14T19:48:50.299Z,63.41
2022-11-14T19:51:35.266Z,64.50
2022-11-14T19:54:20.346Z,64.43
2022-11-14T19:57:05.540Z,64.86
2022-11-14T19:59:50.879Z,64.74
2022-11-14T20:02:40.458Z,64.73
2022-11-14T20:05:25.530Z,64.87
2022-11-14T20:08:10.518Z,64.64
2022-11-14T20:10:59.538Z,64.43
2022-11-14T20:13:45.511Z,64.98
2022-11-14T20:16:34.141Z,64.77
2022-11-14T20:19:19.098Z,65.31
2022-11-14T20:22:06.517Z,65.03
2022-11-14T20:24:54.616Z,65.15
2022-11-14T20:27:42.163Z,64.92
2022-11-14T20:30:27.113Z,65.27
2022-11-14T20:33:12.513Z,65.02
2022-11-14T20:36:06.868Z,64.94
2022-11-14T20:38:55.604Z,65.41
2022-11-14T20:41:43.337Z,65.56
2022-11-14T20:44:28.346Z,65.72
2022-11-14T20:47:13.663Z,65.68
2022-11-14T20:49:58.643Z,65.47
2022-11-14T20:52:45.065Z,65.06
2022-11-14T20:55:32.949Z,65.27
2022-11-14T20:58:18.189Z,65.00
2022-11-14T21:01:03.556Z,65.32
2022-11-14T21:03:50.962Z,66.22
2022-11-14T21:06:36.179Z,66.38
2022-11-14T21:09:21.396Z,66.34
2022-11-14T21:12:06.258Z,66.75
2022-11-14T21:14:51.328Z,66.61
2022-11-14T21:17:36.528Z,65.78
2022-11-14T21:20:23.996Z,65.46
2022-11-14T21:23:09.058Z,65.88
2022-11-14T21:26:00.595Z,65.92
2022-11-14T21:28:46.483Z,65.57
2022-11-14T21:31:33.489Z,65.58
2022-11-14T21:34:18.867Z,65.33
2022-11-14T21:37:06.484Z,64.87
2022-11-14T21:39:51.410Z,64.20
2022-11-14T21:42:36.597Z,64.44
2022-11-14T21:45:22.035Z,64.71
2022-11-14T21:48:09.593Z,64.45
2022-11-14T21:51:01.733Z,64.28
2022-11-14T21:53:47.116Z,64.65
2022-11-14T21:56:34.987Z,64.51
2022-11-14T21:59:23.825Z,64.46
2022-11-14T22:02:30.991Z,64.33
2022-11-14T22:05:15.956Z,64.72
2022-11-14T22:08:00.822Z,65.00
2022-11-14T22:10:45.773Z,64.31
2022-11-14T22:13:33.605Z,64.88
2022-11-14T22:16:19.756Z,64.53
2022-11-14T22:19:05.782Z,65.25
2022-11-14T22:21:50.900Z,65.17
2022-11-14T22:24:35.724Z,65.21
2022-11-14T22:27:23.220Z,65.03
2022-11-14T22:30:08.645Z,64.93
2022-11-14T22:32:53.985Z,65.12
2022-11-14T22:35:38.998Z,65.60
2022-11-14T22:38:23.967Z,65.25
2022-11-14T22:41:13.054Z,65.46
2022-11-14T22:44:00.676Z,65.81
2022-11-14T22:46:45.849Z,65.98
2022-11-14T22:49:30.792Z,65.35
2022-11-14T22:52:15.822Z,66.22
2022-11-14T22:55:00.532Z,66.21
2022-11-14T22:57:45.603Z,66.26
2022-11-14T23:00:32.788Z,66.06
2022-11-14T23:03:21.162Z,66.65
2022-11-14T23:06:07.702Z,66.64
2022-11-14T23:08:52.840Z,67.10
2022-11-14T23:11:38.194Z,67.00
2022-11-14T23:14:25.650Z,66.62
2022-11-14T23:17:10.556Z,66.79
2022-11-14T23:19:56.459Z,66.37
2022-11-14T23:22:41.774Z,66.19
2022-11-14T23:25:26.697Z,65.47
2022-11-14T23:28:11.766Z,65.62
2022-11-14T23:30:57.528Z,65.66
2022-11-14T23:33:42.616Z,65.56
2022-11-14T23:36:28.117Z,65.92
2022-11-14T23:39:13.299Z,65.50
2022-11-14T23:41:58.320Z,65.25
2022-11-14T23:44:43.076Z,65.28
2022-11-14T23:47:27.986Z,65.62
2022-11-14T23:50:13.127Z,65.21
2022-11-14T23:53:00.720Z,65.07
2022-11-14T23:55:55.316Z,65.24
2022-11-14T23:58:42.696Z,65.78
